sensor_id;sensor_type;location;lat;lon;timestamp;temperature;humidity
71942;DHT22;59997;53.300;-6.260;2023-04-03T00:00:04;4.60;87.42
71942;DHT22;59997;53.300;-6.260;2023-04-03T00:02:30;4.57;87.55
71942;DHT22;59997;53.300;-6.260;2023-04-03T00:04:56;4.41;87.65
71942;DHT22;59997;53.300;-6.260;2023-04-03T00:07:21;4.32;87.85
71942;DHT22;59997;53.300;-6.260;2023-04-03T00:09:47;4.20;87.89
71942;DHT22;59997;53.300;-6.260;2023-04-03T00:12:13;4.14;88.17
71942;DHT22;59997;53.300;-6.260;2023-04-03T00:14:38;4.08;88.21
71942;DHT22;59997;53.300;-6.260;2023-04-03T00:17:04;3.94;88.27
71942;DHT22;59997;53.300;-6.260;2023-04-03T00:19:30;4.17;88.35
71942;DHT22;59997;53.300;-6.260;2023-04-03T00:21:55;4.17;88.36
71942;DHT22;59997;53.300;-6.260;2023-04-03T00:24:21;4.10;88.42
71942;DHT22;59997;53.300;-6.260;2023-04-03T00:26:47;4.08;88.46
71942;DHT22;59997;53.300;-6.260;2023-04-03T00:29:12;3.97;88.61
71942;DHT22;59997;53.300;-6.260;2023-04-03T00:31:38;3.78;88.60
71942;DHT22;59997;53.300;-6.260;2023-04-03T00:34:03;3.58;88.76
71942;DHT22;59997;53.300;-6.260;2023-04-03T00:36:29;3.55;89.03
71942;DHT22;59997;53.300;-6.260;2023-04-03T00:38:54;3.65;89.29
71942;DHT22;59997;53.300;-6.260;2023-04-03T00:41:20;3.80;89.53
71942;DHT22;59997;53.300;-6.260;2023-04-03T00:43:46;3.86;89.45
71942;DHT22;59997;53.300;-6.260;2023-04-03T00:46:12;4.07;89.48
71942;DHT22;59997;53.300;-6.260;2023-04-03T00:48:44;4.05;89.42
71942;DHT22;59997;53.300;-6.260;2023-04-03T00:51:13;4.10;89.47
71942;DHT22;59997;53.300;-6.260;2023-04-03T00:53:44;4.17;89.43
71942;DHT22;59997;53.300;-6.260;2023-04-03T00:56:14;4.46;89.33
71942;DHT22;59997;53.300;-6.260;2023-04-03T00:58:44;4.38;89.13
71942;DHT22;59997;53.300;-6.260;2023-04-03T01:01:15;4.27;89.07
71942;DHT22;59997;53.300;-6.260;2023-04-03T01:03:41;4.44;88.98
71942;DHT22;59997;53.300;-6.260;2023-04-03T01:06:07;4.55;88.84
71942;DHT22;59997;53.300;-6.260;2023-04-03T01:08:33;4.62;88.72
71942;DHT22;59997;53.300;-6.260;2023-04-03T01:10:59;4.87;88.49
71942;DHT22;59997;53.300;-6.260;2023-04-03T01:13:28;4.91;88.14
71942;DHT22;59997;53.300;-6.260;2023-04-03T01:15:54;5.02;88.10
71942;DHT22;59997;53.300;-6.260;2023-04-03T01:18:20;5.00;87.96
71942;DHT22;59997;53.300;-6.260;2023-04-03T01:25:54;4.97;87.75
71942;DHT22;59997;53.300;-6.260;2023-04-03T01:31:02;4.94;87.67
71942;DHT22;59997;53.300;-6.260;2023-04-03T01:33:31;4.83;87.81
71942;DHT22;59997;53.300;-6.260;2023-04-03T01:35:56;4.92;87.85
71942;DHT22;59997;53.300;-6.260;2023-04-03T01:38:22;4.87;87.85
71942;DHT22;59997;53.300;-6.260;2023-04-03T01:40:48;4.90;87.84
71942;DHT22;59997;53.300;-6.260;2023-04-03T01:43:13;4.80;87.81
71942;DHT22;59997;53.300;-6.260;2023-04-03T01:45:39;4.70;88.06
71942;DHT22;59997;53.300;-6.260;2023-04-03T01:48:04;4.57;88.08
71942;DHT22;59997;53.300;-6.260;2023-04-03T01:50:30;4.49;88.18
71942;DHT22;59997;53.300;-6.260;2023-04-03T01:52:55;4.32;88.32
71942;DHT22;59997;53.300;-6.260;2023-04-03T01:55:21;4.53;88.60
71942;DHT22;59997;53.300;-6.260;2023-04-03T01:57:46;4.66;88.60
71942;DHT22;59997;53.300;-6.260;2023-04-03T02:00:12;4.91;88.52
71942;DHT22;59997;53.300;-6.260;2023-04-03T02:02:38;4.76;88.48
71942;DHT22;59997;53.300;-6.260;2023-04-03T02:05:04;4.81;88.47
71942;DHT22;59997;53.300;-6.260;2023-04-03T02:07:29;4.88;88.60
71942;DHT22;59997;53.300;-6.260;2023-04-03T02:09:55;4.76;88.44
71942;DHT22;59997;53.300;-6.260;2023-04-03T02:12:20;4.77;88.58
71942;DHT22;59997;53.300;-6.260;2023-04-03T02:14:46;4.79;88.59
71942;DHT22;59997;53.300;-6.260;2023-04-03T02:17:12;4.88;88.63
71942;DHT22;59997;53.300;-6.260;2023-04-03T02:19:37;4.92;88.71
71942;DHT22;59997;53.300;-6.260;2023-04-03T02:22:04;4.85;88.81
71942;DHT22;59997;53.300;-6.260;2023-04-03T02:24:30;4.94;88.90
71942;DHT22;59997;53.300;-6.260;2023-04-03T02:26:56;5.07;89.15
71942;DHT22;59997;53.300;-6.260;2023-04-03T02:29:21;5.15;89.09
71942;DHT22;59997;53.300;-6.260;2023-04-03T02:31:47;5.19;89.16
71942;DHT22;59997;53.300;-6.260;2023-04-03T02:34:12;5.12;89.23
71942;DHT22;59997;53.300;-6.260;2023-04-03T02:36:38;5.26;89.37
71942;DHT22;59997;53.300;-6.260;2023-04-03T02:39:03;5.19;89.33
71942;DHT22;59997;53.300;-6.260;2023-04-03T02:41:29;5.05;89.40
71942;DHT22;59997;53.300;-6.260;2023-04-03T02:44:04;5.00;89.46
71942;DHT22;59997;53.300;-6.260;2023-04-03T02:46:29;5.22;89.53
71942;DHT22;59997;53.300;-6.260;2023-04-03T02:48:55;5.31;89.56
71942;DHT22;59997;53.300;-6.260;2023-04-03T02:51:21;5.31;89.63
71942;DHT22;59997;53.300;-6.260;2023-04-03T02:53:48;5.39;89.60
71942;DHT22;59997;53.300;-6.260;2023-04-03T02:56:14;5.44;89.58
71942;DHT22;59997;53.300;-6.260;2023-04-03T02:58:39;5.70;89.61
71942;DHT22;59997;53.300;-6.260;2023-04-03T03:01:05;5.83;89.55
71942;DHT22;59997;53.300;-6.260;2023-04-03T03:03:30;6.01;89.43
71942;DHT22;59997;53.300;-6.260;2023-04-03T03:06:14;6.06;89.23
71942;DHT22;59997;53.300;-6.260;2023-04-03T03:08:40;5.84;89.18
71942;DHT22;59997;53.300;-6.260;2023-04-03T03:11:06;5.64;89.31
71942;DHT22;59997;53.300;-6.260;2023-04-03T03:13:31;5.59;89.33
71942;DHT22;59997;53.300;-6.260;2023-04-03T03:15:57;5.36;89.33
71942;DHT22;59997;53.300;-6.260;2023-04-03T03:18:23;5.19;89.33
71942;DHT22;59997;53.300;-6.260;2023-04-03T03:20:59;4.97;89.39
71942;DHT22;59997;53.300;-6.260;2023-04-03T03:23:26;5.01;89.73
71942;DHT22;59997;53.300;-6.260;2023-04-03T03:25:57;4.87;89.68
71942;DHT22;59997;53.300;-6.260;2023-04-03T03:28:22;4.85;89.85
71942;DHT22;59997;53.300;-6.260;2023-04-03T03:30:48;5.07;89.91
71942;DHT22;59997;53.300;-6.260;2023-04-03T03:33:14;4.95;89.89
71942;DHT22;59997;53.300;-6.260;2023-04-03T03:35:39;4.69;89.92
71942;DHT22;59997;53.300;-6.260;2023-04-03T03:38:05;4.90;90.13
71942;DHT22;59997;53.300;-6.260;2023-04-03T03:40:31;4.90;90.09
71942;DHT22;59997;53.300;-6.260;2023-04-03T03:42:56;5.14;90.21
71942;DHT22;59997;53.300;-6.260;2023-04-03T03:45:22;5.31;90.11
71942;DHT22;59997;53.300;-6.260;2023-04-03T03:47:47;5.38;90.01
71942;DHT22;59997;53.300;-6.260;2023-04-03T03:50:12;5.35;89.80
71942;DHT22;59997;53.300;-6.260;2023-04-03T03:52:38;5.57;89.73
71942;DHT22;59997;53.300;-6.260;2023-04-03T03:55:04;5.85;89.63
71942;DHT22;59997;53.300;-6.260;2023-04-03T03:57:29;6.18;89.19
71942;DHT22;59997;53.300;-6.260;2023-04-03T03:59:55;6.20;88.85
71942;DHT22;59997;53.300;-6.260;2023-04-03T04:02:21;6.08;88.61
71942;DHT22;59997;53.300;-6.260;2023-04-03T04:04:47;5.95;88.64
71942;DHT22;59997;53.300;-6.260;2023-04-03T04:07:12;5.91;88.63
71942;DHT22;59997;53.300;-6.260;2023-04-03T04:09:38;6.04;88.50
71942;DHT22;59997;53.300;-6.260;2023-04-03T04:12:03;6.16;88.30
71942;DHT22;59997;53.300;-6.260;2023-04-03T04:14:29;6.48;87.99
71942;DHT22;59997;53.300;-6.260;2023-04-03T04:16:54;6.60;87.64
71942;DHT22;59997;53.300;-6.260;2023-04-03T04:19:20;6.58;87.56
71942;DHT22;59997;53.300;-6.260;2023-04-03T04:21:45;6.77;87.38
71942;DHT22;59997;53.300;-6.260;2023-04-03T04:24:10;6.89;86.82
71942;DHT22;59997;53.300;-6.260;2023-04-03T04:26:36;7.07;85.97
71942;DHT22;59997;53.300;-6.260;2023-04-03T04:29:01;7.20;85.80
71942;DHT22;59997;53.300;-6.260;2023-04-03T04:31:27;7.24;85.67
71942;DHT22;59997;53.300;-6.260;2023-04-03T04:33:53;7.26;85.60
71942;DHT22;59997;53.300;-6.260;2023-04-03T04:36:18;7.07;85.75
71942;DHT22;59997;53.300;-6.260;2023-04-03T04:38:44;6.78;85.93
71942;DHT22;59997;53.300;-6.260;2023-04-03T04:41:10;6.74;86.08
71942;DHT22;59997;53.300;-6.260;2023-04-03T04:43:36;6.80;86.10
71942;DHT22;59997;53.300;-6.260;2023-04-03T04:46:06;7.00;86.03
71942;DHT22;59997;53.300;-6.260;2023-04-03T04:48:33;7.00;85.92
71942;DHT22;59997;53.300;-6.260;2023-04-03T04:50:59;6.95;86.00
71942;DHT22;59997;53.300;-6.260;2023-04-03T04:53:25;6.85;86.09
71942;DHT22;59997;53.300;-6.260;2023-04-03T04:55:51;6.60;86.35
71942;DHT22;59997;53.300;-6.260;2023-04-03T04:58:17;6.64;86.66
71942;DHT22;59997;53.300;-6.260;2023-04-03T05:00:42;6.65;86.59
71942;DHT22;59997;53.300;-6.260;2023-04-03T05:03:08;6.71;86.53
71942;DHT22;59997;53.300;-6.260;2023-04-03T05:05:33;6.91;86.08
71942;DHT22;59997;53.300;-6.260;2023-04-03T05:07:59;6.98;86.11
71942;DHT22;59997;53.300;-6.260;2023-04-03T05:10:24;7.02;85.95
71942;DHT22;59997;53.300;-6.260;2023-04-03T05:12:50;7.05;85.77
71942;DHT22;59997;53.300;-6.260;2023-04-03T05:15:15;7.00;85.88
71942;DHT22;59997;53.300;-6.260;2023-04-03T05:17:41;6.77;86.19
71942;DHT22;59997;53.300;-6.260;2023-04-03T05:20:07;6.60;86.43
71942;DHT22;59997;53.300;-6.260;2023-04-03T05:22:33;6.77;86.51
71942;DHT22;59997;53.300;-6.260;2023-04-03T05:24:59;6.92;86.43
71942;DHT22;59997;53.300;-6.260;2023-04-03T05:27:25;6.71;86.52
71942;DHT22;59997;53.300;-6.260;2023-04-03T05:29:53;6.81;86.53
71942;DHT22;59997;53.300;-6.260;2023-04-03T05:32:19;6.91;86.48
71942;DHT22;59997;53.300;-6.260;2023-04-03T05:34:44;6.93;86.44
71942;DHT22;59997;53.300;-6.260;2023-04-03T05:37:10;6.82;86.58
71942;DHT22;59997;53.300;-6.260;2023-04-03T05:39:35;6.70;86.78
71942;DHT22;59997;53.300;-6.260;2023-04-03T05:42:03;6.71;86.96
71942;DHT22;59997;53.300;-6.260;2023-04-03T05:44:28;6.71;87.12
71942;DHT22;59997;53.300;-6.260;2023-04-03T05:46:53;6.78;87.15
71942;DHT22;59997;53.300;-6.260;2023-04-03T05:49:19;6.82;87.12
71942;DHT22;59997;53.300;-6.260;2023-04-03T05:51:44;6.71;87.15
71942;DHT22;59997;53.300;-6.260;2023-04-03T05:54:23;6.77;87.07
71942;DHT22;59997;53.300;-6.260;2023-04-03T05:56:52;6.85;86.91
71942;DHT22;59997;53.300;-6.260;2023-04-03T05:59:19;7.03;86.67
71942;DHT22;59997;53.300;-6.260;2023-04-03T06:01:45;7.02;86.86
71942;DHT22;59997;53.300;-6.260;2023-04-03T06:04:11;7.13;86.69
71942;DHT22;59997;53.300;-6.260;2023-04-03T06:06:49;7.02;86.78
71942;DHT22;59997;53.300;-6.260;2023-04-03T06:09:18;7.17;86.19
71942;DHT22;59997;53.300;-6.260;2023-04-03T06:11:43;7.19;86.35
71942;DHT22;59997;53.300;-6.260;2023-04-03T06:14:10;7.27;86.35
71942;DHT22;59997;53.300;-6.260;2023-04-03T06:16:36;7.38;86.49
71942;DHT22;59997;53.300;-6.260;2023-04-03T06:19:02;7.46;86.75
71942;DHT22;59997;53.300;-6.260;2023-04-03T06:21:29;7.62;86.57
71942;DHT22;59997;53.300;-6.260;2023-04-03T06:23:55;7.74;86.61
71942;DHT22;59997;53.300;-6.260;2023-04-03T06:26:20;7.69;86.36
71942;DHT22;59997;53.300;-6.260;2023-04-03T06:28:47;7.62;86.02
71942;DHT22;59997;53.300;-6.260;2023-04-03T06:31:13;7.65;85.87
71942;DHT22;59997;53.300;-6.260;2023-04-03T06:33:38;7.68;85.68
71942;DHT22;59997;53.300;-6.260;2023-04-03T06:36:04;7.57;85.99
71942;DHT22;59997;53.300;-6.260;2023-04-03T06:38:32;7.59;85.57
71942;DHT22;59997;53.300;-6.260;2023-04-03T06:40:58;7.69;85.26
71942;DHT22;59997;53.300;-6.260;2023-04-03T06:43:24;7.74;85.13
71942;DHT22;59997;53.300;-6.260;2023-04-03T06:45:50;7.78;85.07
71942;DHT22;59997;53.300;-6.260;2023-04-03T06:48:15;7.81;84.78
71942;DHT22;59997;53.300;-6.260;2023-04-03T06:50:41;7.86;84.62
71942;DHT22;59997;53.300;-6.260;2023-04-03T06:53:06;7.82;84.34
71942;DHT22;59997;53.300;-6.260;2023-04-03T06:55:32;7.79;84.31
71942;DHT22;59997;53.300;-6.260;2023-04-03T06:57:58;7.85;83.94
71942;DHT22;59997;53.300;-6.260;2023-04-03T07:00:23;7.92;83.80
71942;DHT22;59997;53.300;-6.260;2023-04-03T07:02:50;7.94;83.66
71942;DHT22;59997;53.300;-6.260;2023-04-03T07:05:15;7.93;84.05
71942;DHT22;59997;53.300;-6.260;2023-04-03T07:07:41;7.93;83.33
71942;DHT22;59997;53.300;-6.260;2023-04-03T07:10:07;7.97;83.50
71942;DHT22;59997;53.300;-6.260;2023-04-03T07:12:33;8.06;83.36
71942;DHT22;59997;53.300;-6.260;2023-04-03T07:14:58;8.02;83.12
71942;DHT22;59997;53.300;-6.260;2023-04-03T07:17:24;8.09;83.04
71942;DHT22;59997;53.300;-6.260;2023-04-03T07:19:51;8.23;82.35
71942;DHT22;59997;53.300;-6.260;2023-04-03T07:22:17;8.35;82.11
71942;DHT22;59997;53.300;-6.260;2023-04-03T07:24:43;8.54;82.25
71942;DHT22;59997;53.300;-6.260;2023-04-03T07:27:08;8.61;81.53
71942;DHT22;59997;53.300;-6.260;2023-04-03T07:29:35;8.66;81.67
71942;DHT22;59997;53.300;-6.260;2023-04-03T07:32:01;8.86;81.35
71942;DHT22;59997;53.300;-6.260;2023-04-03T07:34:27;8.99;80.41
71942;DHT22;59997;53.300;-6.260;2023-04-03T07:36:52;9.04;81.24
71942;DHT22;59997;53.300;-6.260;2023-04-03T07:39:18;9.24;80.16
71942;DHT22;59997;53.300;-6.260;2023-04-03T07:41:44;9.32;80.27
71942;DHT22;59997;53.300;-6.260;2023-04-03T07:44:09;9.36;80.31
71942;DHT22;59997;53.300;-6.260;2023-04-03T07:46:36;9.35;80.36
71942;DHT22;59997;53.300;-6.260;2023-04-03T07:49:02;9.36;80.42
71942;DHT22;59997;53.300;-6.260;2023-04-03T07:51:27;9.34;80.71
71942;DHT22;59997;53.300;-6.260;2023-04-03T07:53:54;9.41;80.55
71942;DHT22;59997;53.300;-6.260;2023-04-03T07:56:20;9.43;80.05
71942;DHT22;59997;53.300;-6.260;2023-04-03T07:58:46;9.45;79.53
71942;DHT22;59997;53.300;-6.260;2023-04-03T08:01:12;9.57;79.46
71942;DHT22;59997;53.300;-6.260;2023-04-03T08:03:38;9.55;79.60
71942;DHT22;59997;53.300;-6.260;2023-04-03T08:06:06;9.50;78.72
71942;DHT22;59997;53.300;-6.260;2023-04-03T08:08:32;9.48;79.93
71942;DHT22;59997;53.300;-6.260;2023-04-03T08:10:59;9.43;78.97
71942;DHT22;59997;53.300;-6.260;2023-04-03T08:13:25;9.56;79.47
71942;DHT22;59997;53.300;-6.260;2023-04-03T08:15:51;9.52;78.74
71942;DHT22;59997;53.300;-6.260;2023-04-03T08:18:17;9.43;78.78
71942;DHT22;59997;53.300;-6.260;2023-04-03T08:20:44;9.50;80.03
71942;DHT22;59997;53.300;-6.260;2023-04-03T08:23:10;9.43;79.45
71942;DHT22;59997;53.300;-6.260;2023-04-03T08:25:40;9.55;80.32
71942;DHT22;59997;53.300;-6.260;2023-04-03T08:28:06;9.46;80.40
71942;DHT22;59997;53.300;-6.260;2023-04-03T08:30:32;9.38;80.09
71942;DHT22;59997;53.300;-6.260;2023-04-03T08:33:00;9.32;80.10
71942;DHT22;59997;53.300;-6.260;2023-04-03T08:35:27;9.43;80.19
71942;DHT22;59997;53.300;-6.260;2023-04-03T08:37:52;9.50;80.07
71942;DHT22;59997;53.300;-6.260;2023-04-03T08:40:18;9.45;79.91
71942;DHT22;59997;53.300;-6.260;2023-04-03T08:50:34;9.82;80.10
71942;DHT22;59997;53.300;-6.260;2023-04-03T08:53:02;10.07;79.77
71942;DHT22;59997;53.300;-6.260;2023-04-03T08:55:34;9.90;78.75
71942;DHT22;59997;53.300;-6.260;2023-04-03T09:00:57;9.60;80.12
71942;DHT22;59997;53.300;-6.260;2023-04-03T09:03:23;9.86;79.60
71942;DHT22;59997;53.300;-6.260;2023-04-03T09:06:29;10.46;78.95
71942;DHT22;59997;53.300;-6.260;2023-04-03T09:22:34;10.94;75.05
71942;DHT22;59997;53.300;-6.260;2023-04-03T09:27:37;10.95;75.67
71942;DHT22;59997;53.300;-6.260;2023-04-03T09:30:03;11.05;76.92
71942;DHT22;59997;53.300;-6.260;2023-04-03T09:32:34;10.93;76.11
71942;DHT22;59997;53.300;-6.260;2023-04-03T09:35:15;10.67;76.44
71942;DHT22;59997;53.300;-6.260;2023-04-03T09:37:43;10.46;76.88
71942;DHT22;59997;53.300;-6.260;2023-04-03T09:40:30;10.34;77.57
71942;DHT22;59997;53.300;-6.260;2023-04-03T09:43:01;10.36;78.20
71942;DHT22;59997;53.300;-6.260;2023-04-03T09:45:34;10.25;78.11
71942;DHT22;59997;53.300;-6.260;2023-04-03T09:48:07;10.29;78.53
71942;DHT22;59997;53.300;-6.260;2023-04-03T09:50:35;10.31;78.04
71942;DHT22;59997;53.300;-6.260;2023-04-03T09:53:06;10.25;78.42
71942;DHT22;59997;53.300;-6.260;2023-04-03T09:55:42;10.43;77.98
71942;DHT22;59997;53.300;-6.260;2023-04-03T09:58:24;10.56;77.99
71942;DHT22;59997;53.300;-6.260;2023-04-03T10:00:55;10.64;77.76
71942;DHT22;59997;53.300;-6.260;2023-04-03T10:03:31;10.70;76.69
71942;DHT22;59997;53.300;-6.260;2023-04-03T10:05:58;10.97;77.25
71942;DHT22;59997;53.300;-6.260;2023-04-03T10:08:34;11.05;76.71
71942;DHT22;59997;53.300;-6.260;2023-04-03T10:11:17;10.78;76.72
71942;DHT22;59997;53.300;-6.260;2023-04-03T10:13:55;10.60;77.51
71942;DHT22;59997;53.300;-6.260;2023-04-03T10:16:34;10.53;77.63
71942;DHT22;59997;53.300;-6.260;2023-04-03T10:19:41;10.35;78.30
71942;DHT22;59997;53.300;-6.260;2023-04-03T10:24:58;10.67;78.51
71942;DHT22;59997;53.300;-6.260;2023-04-03T10:27:35;10.76;77.15
71942;DHT22;59997;53.300;-6.260;2023-04-03T10:38:46;10.36;78.53
71942;DHT22;59997;53.300;-6.260;2023-04-03T10:41:42;10.29;78.64
71942;DHT22;59997;53.300;-6.260;2023-04-03T10:47:16;10.31;79.65
71942;DHT22;59997;53.300;-6.260;2023-04-03T10:55:41;10.46;78.76
71942;DHT22;59997;53.300;-6.260;2023-04-03T10:58:05;10.71;79.07
71942;DHT22;59997;53.300;-6.260;2023-04-03T11:00:39;10.88;76.73
71942;DHT22;59997;53.300;-6.260;2023-04-03T11:03:10;11.12;77.17
71942;DHT22;59997;53.300;-6.260;2023-04-03T11:05:43;11.25;76.99
71942;DHT22;59997;53.300;-6.260;2023-04-03T11:10:49;11.54;76.69
71942;DHT22;59997;53.300;-6.260;2023-04-03T11:13:17;11.40;75.24
71942;DHT22;59997;53.300;-6.260;2023-04-03T11:15:45;11.44;75.70
71942;DHT22;59997;53.300;-6.260;2023-04-03T11:18:26;11.05;77.23
71942;DHT22;59997;53.300;-6.260;2023-04-03T11:21:16;10.93;77.14
71942;DHT22;59997;53.300;-6.260;2023-04-03T11:23:45;10.97;77.27
71942;DHT22;59997;53.300;-6.260;2023-04-03T11:26:20;11.25;77.99
71942;DHT22;59997;53.300;-6.260;2023-04-03T11:28:52;11.54;76.27
71942;DHT22;59997;53.300;-6.260;2023-04-03T11:36:47;12.32;74.34
71942;DHT22;59997;53.300;-6.260;2023-04-03T11:39:31;12.80;74.70
71942;DHT22;59997;53.300;-6.260;2023-04-03T11:47:51;12.43;74.34
71942;DHT22;59997;53.300;-6.260;2023-04-03T11:50:40;12.30;73.37
71942;DHT22;59997;53.300;-6.260;2023-04-03T12:05:53;12.12;73.24
71942;DHT22;59997;53.300;-6.260;2023-04-03T12:08:43;12.16;74.01
71942;DHT22;59997;53.300;-6.260;2023-04-03T12:19:02;12.22;74.04
71942;DHT22;59997;53.300;-6.260;2023-04-03T12:26:48;12.73;72.23
71942;DHT22;59997;53.300;-6.260;2023-04-03T12:29:33;12.41;72.70
71942;DHT22;59997;53.300;-6.260;2023-04-03T12:45:44;13.32;70.45
71942;DHT22;59997;53.300;-6.260;2023-04-03T12:48:15;13.51;72.02
71942;DHT22;59997;53.300;-6.260;2023-04-03T12:50:43;13.85;70.07
71942;DHT22;59997;53.300;-6.260;2023-04-03T12:53:27;13.19;70.99
71942;DHT22;59997;53.300;-6.260;2023-04-03T12:55:56;13.13;71.19
71942;DHT22;59997;53.300;-6.260;2023-04-03T13:01:10;12.95;71.16
71942;DHT22;59997;53.300;-6.260;2023-04-03T13:03:39;12.67;71.80
71942;DHT22;59997;53.300;-6.260;2023-04-03T13:06:05;12.50;73.13
71942;DHT22;59997;53.300;-6.260;2023-04-03T13:08:31;12.49;73.40
71942;DHT22;59997;53.300;-6.260;2023-04-03T13:11:10;12.92;73.78
71942;DHT22;59997;53.300;-6.260;2023-04-03T13:13:36;12.98;72.95
71942;DHT22;59997;53.300;-6.260;2023-04-03T13:16:11;12.78;72.70
71942;DHT22;59997;53.300;-6.260;2023-04-03T13:18:39;13.22;75.19
71942;DHT22;59997;53.300;-6.260;2023-04-03T13:21:07;13.10;73.67
71942;DHT22;59997;53.300;-6.260;2023-04-03T13:23:38;13.27;71.91
71942;DHT22;59997;53.300;-6.260;2023-04-03T13:26:05;13.12;72.51
71942;DHT22;59997;53.300;-6.260;2023-04-03T13:28:33;13.36;72.84
71942;DHT22;59997;53.300;-6.260;2023-04-03T13:31:16;14.12;74.15
71942;DHT22;59997;53.300;-6.260;2023-04-03T13:33:56;14.05;69.77
71942;DHT22;59997;53.300;-6.260;2023-04-03T13:36:29;14.27;71.90
71942;DHT22;59997;53.300;-6.260;2023-04-03T13:41:48;13.06;72.09
71942;DHT22;59997;53.300;-6.260;2023-04-03T13:47:21;12.65;73.31
71942;DHT22;59997;53.300;-6.260;2023-04-03T13:50:12;12.43;73.55
71942;DHT22;59997;53.300;-6.260;2023-04-03T13:52:54;12.18;75.03
71942;DHT22;59997;53.300;-6.260;2023-04-03T13:55:24;12.56;74.90
71942;DHT22;59997;53.300;-6.260;2023-04-03T14:00:53;12.84;73.32
71942;DHT22;59997;53.300;-6.260;2023-04-03T14:03:31;13.40;72.03
71942;DHT22;59997;53.300;-6.260;2023-04-03T14:05:57;13.32;70.51
71942;DHT22;59997;53.300;-6.260;2023-04-03T14:08:23;12.75;70.42
71942;DHT22;59997;53.300;-6.260;2023-04-03T14:10:49;12.56;70.54
71942;DHT22;59997;53.300;-6.260;2023-04-03T14:13:16;13.05;71.04
71942;DHT22;59997;53.300;-6.260;2023-04-03T14:15:43;13.72;70.28
71942;DHT22;59997;53.300;-6.260;2023-04-03T14:18:14;14.17;67.51
71942;DHT22;59997;53.300;-6.260;2023-04-03T14:20:40;13.72;66.30
71942;DHT22;59997;53.300;-6.260;2023-04-03T14:23:05;13.22;68.03
71942;DHT22;59997;53.300;-6.260;2023-04-03T14:25:31;12.81;68.30
71942;DHT22;59997;53.300;-6.260;2023-04-03T14:27:58;13.43;71.15
71942;DHT22;59997;53.300;-6.260;2023-04-03T14:30:30;14.09;69.51
71942;DHT22;59997;53.300;-6.260;2023-04-03T14:32:57;13.68;64.03
71942;DHT22;59997;53.300;-6.260;2023-04-03T14:35:23;13.12;66.84
71942;DHT22;59997;53.300;-6.260;2023-04-03T14:37:49;12.75;69.13
71942;DHT22;59997;53.300;-6.260;2023-04-03T14:40:19;12.69;71.22
71942;DHT22;59997;53.300;-6.260;2023-04-03T14:42:45;12.61;70.77
71942;DHT22;59997;53.300;-6.260;2023-04-03T14:45:13;12.43;70.86
71942;DHT22;59997;53.300;-6.260;2023-04-03T14:47:47;12.40;70.20
71942;DHT22;59997;53.300;-6.260;2023-04-03T14:50:21;12.28;70.84
71942;DHT22;59997;53.300;-6.260;2023-04-03T14:52:48;11.87;71.72
71942;DHT22;59997;53.300;-6.260;2023-04-03T14:55:16;11.56;73.88
71942;DHT22;59997;53.300;-6.260;2023-04-03T14:57:42;11.42;73.22
71942;DHT22;59997;53.300;-6.260;2023-04-03T15:00:13;11.11;73.91
71942;DHT22;59997;53.300;-6.260;2023-04-03T15:02:39;11.00;74.07
71942;DHT22;59997;53.300;-6.260;2023-04-03T15:05:10;11.62;75.11
71942;DHT22;59997;53.300;-6.260;2023-04-03T15:07:50;11.71;72.18
71942;DHT22;59997;53.300;-6.260;2023-04-03T15:10:22;11.60;71.69
71942;DHT22;59997;53.300;-6.260;2023-04-03T15:12:49;11.62;71.72
71942;DHT22;59997;53.300;-6.260;2023-04-03T15:15:17;11.82;72.95
71942;DHT22;59997;53.300;-6.260;2023-04-03T15:17:44;12.23;72.32
71942;DHT22;59997;53.300;-6.260;2023-04-03T15:20:17;11.99;71.51
71942;DHT22;59997;53.300;-6.260;2023-04-03T15:22:42;12.23;74.23
71942;DHT22;59997;53.300;-6.260;2023-04-03T15:25:09;12.40;70.84
71942;DHT22;59997;53.300;-6.260;2023-04-03T15:27:35;12.22;69.39
71942;DHT22;59997;53.300;-6.260;2023-04-03T15:30:01;12.43;70.38
71942;DHT22;59997;53.300;-6.260;2023-04-03T15:32:26;12.85;69.57
71942;DHT22;59997;53.300;-6.260;2023-04-03T15:34:53;13.16;68.10
71942;DHT22;59997;53.300;-6.260;2023-04-03T15:37:19;13.24;69.31
71942;DHT22;59997;53.300;-6.260;2023-04-03T15:39:44;13.61;68.44
71942;DHT22;59997;53.300;-6.260;2023-04-03T15:42:10;13.65;66.18
71942;DHT22;59997;53.300;-6.260;2023-04-03T15:44:37;13.19;67.24
71942;DHT22;59997;53.300;-6.260;2023-04-03T15:47:03;12.89;68.17
71942;DHT22;59997;53.300;-6.260;2023-04-03T15:49:28;12.33;69.07
71942;DHT22;59997;53.300;-6.260;2023-04-03T15:51:55;11.70;70.86
71942;DHT22;59997;53.300;-6.260;2023-04-03T15:54:21;11.81;70.95
71942;DHT22;59997;53.300;-6.260;2023-04-03T15:56:48;11.78;70.81
71942;DHT22;59997;53.300;-6.260;2023-04-03T15:59:14;11.91;71.78
71942;DHT22;59997;53.300;-6.260;2023-04-03T16:01:40;11.88;69.74
71942;DHT22;59997;53.300;-6.260;2023-04-03T16:04:07;11.89;70.66
71942;DHT22;59997;53.300;-6.260;2023-04-03T16:06:33;11.91;70.28
71942;DHT22;59997;53.300;-6.260;2023-04-03T16:08:59;12.05;70.65
71942;DHT22;59997;53.300;-6.260;2023-04-03T16:11:26;12.09;68.63
71942;DHT22;59997;53.300;-6.260;2023-04-03T16:13:52;12.39;69.18
71942;DHT22;59997;53.300;-6.260;2023-04-03T16:16:17;11.94;69.44
71942;DHT22;59997;53.300;-6.260;2023-04-03T16:18:43;11.59;71.41
71942;DHT22;59997;53.300;-6.260;2023-04-03T16:21:09;11.35;71.93
71942;DHT22;59997;53.300;-6.260;2023-04-03T16:23:34;11.37;71.40
71942;DHT22;59997;53.300;-6.260;2023-04-03T16:26:00;11.71;71.73
71942;DHT22;59997;53.300;-6.260;2023-04-03T16:28:26;11.82;69.87
71942;DHT22;59997;53.300;-6.260;2023-04-03T16:30:52;11.49;71.23
71942;DHT22;59997;53.300;-6.260;2023-04-03T16:33:18;11.14;71.78
71942;DHT22;59997;53.300;-6.260;2023-04-03T16:35:46;11.32;70.96
71942;DHT22;59997;53.300;-6.260;2023-04-03T16:38:13;11.02;70.34
71942;DHT22;59997;53.300;-6.260;2023-04-03T16:40:39;10.67;72.33
71942;DHT22;59997;53.300;-6.260;2023-04-03T16:43:04;10.88;73.31
71942;DHT22;59997;53.300;-6.260;2023-04-03T16:45:30;10.69;73.00
71942;DHT22;59997;53.300;-6.260;2023-04-03T16:47:56;10.67;73.30
71942;DHT22;59997;53.300;-6.260;2023-04-03T16:50:21;10.56;73.81
71942;DHT22;59997;53.300;-6.260;2023-04-03T16:52:47;10.60;73.58
71942;DHT22;59997;53.300;-6.260;2023-04-03T16:55:12;10.61;73.29
71942;DHT22;59997;53.300;-6.260;2023-04-03T16:57:38;10.67;72.65
71942;DHT22;59997;53.300;-6.260;2023-04-03T17:00:04;10.80;72.90
71942;DHT22;59997;53.300;-6.260;2023-04-03T17:02:30;10.81;72.21
71942;DHT22;59997;53.300;-6.260;2023-04-03T17:04:56;10.77;73.79
71942;DHT22;59997;53.300;-6.260;2023-04-03T17:07:24;10.77;73.18
71942;DHT22;59997;53.300;-6.260;2023-04-03T17:09:49;10.71;73.05
71942;DHT22;59997;53.300;-6.260;2023-04-03T17:12:15;10.66;73.20
71942;DHT22;59997;53.300;-6.260;2023-04-03T17:14:41;10.56;73.15
71942;DHT22;59997;53.300;-6.260;2023-04-03T17:17:07;10.63;72.77
71942;DHT22;59997;53.300;-6.260;2023-04-03T17:19:34;10.80;73.68
71942;DHT22;59997;53.300;-6.260;2023-04-03T17:22:00;10.57;73.94
71942;DHT22;59997;53.300;-6.260;2023-04-03T17:24:26;10.31;73.93
71942;DHT22;59997;53.300;-6.260;2023-04-03T17:26:52;10.28;73.88
71942;DHT22;59997;53.300;-6.260;2023-04-03T17:29:18;10.38;73.86